Time;durP1;ratioP1;P1;durP2;ratioP2;P2;SDS_P1;SDS_P2;PMS_P1;PMS_P2;Temp;Humidity;BMP_temperature;BMP_pressure;BME280_temperature;BME280_humidity;BME280_pressure;Samples;Min_cycle;Max_cycle;Signal;HPM_P1;HPM_P2
2022/10/28 00:00:05;;;;;;;9.65;7.50;;;;;;;;;;5040457;28;20437;-82
2022/10/28 00:02:32;;;;;;;11.98;8.13;;;;;;;;;;5043751;28;20423;-81
2022/10/28 00:04:59;;;;;;;16.17;8.50;;;;;;;;;;5044853;28;20433;-82
2022/10/28 00:07:25;;;;;;;9.55;7.45;;;;;;;;;;5044085;28;20430;-82
2022/10/28 00:09:52;;;;;;;13.18;8.50;;;;;;;;;;5043068;28;20425;-81
2022/10/28 00:12:18;;;;;;;12.57;8.43;;;;;;;;;;5043371;28;20426;-82
2022/10/28 00:14:46;;;;;;;12.83;8.13;;;;;;;;;;5044127;28;20431;-81
2022/10/28 00:17:12;;;;;;;13.80;8.73;;;;;;;;;;5041336;28;20576;-82
2022/10/28 00:19:39;;;;;;;9.57;7.45;;;;;;;;;;5041529;28;20445;-82
2022/10/28 00:22:05;;;;;;;14.38;9.43;;;;;;;;;;5043232;28;20414;-82
2022/10/28 00:24:32;;;;;;;14.52;9.13;;;;;;;;;;5044628;28;20429;-82
2022/10/28 00:26:58;;;;;;;15.95;8.80;;;;;;;;;;5043035;28;20791;-83
2022/10/28 00:29:24;;;;;;;15.07;8.70;;;;;;;;;;5043298;28;20434;-82
2022/10/28 00:31:53;;;;;;;13.82;8.95;;;;;;;;;;5043306;28;20433;-83
2022/10/28 00:34:21;;;;;;;19.00;9.50;;;;;;;;;;5042888;28;20444;-83
2022/10/28 00:36:48;;;;;;;13.95;9.70;;;;;;;;;;5039332;28;20435;-84
2022/10/28 00:39:15;;;;;;;11.77;9.03;;;;;;;;;;5041852;28;20431;-81
2022/10/28 00:41:43;;;;;;;14.25;9.10;;;;;;;;;;5042130;28;20433;-82
2022/10/28 00:44:28;;;;;;;16.83;9.45;;;;;;;;;;5043634;28;20421;-82
2022/10/28 00:46:56;;;;;;;16.88;9.38;;;;;;;;;;5043263;28;20435;-81
2022/10/28 00:49:26;;;;;;;17.10;9.32;;;;;;;;;;5043232;28;20417;-82
2022/10/28 00:51:54;;;;;;;15.53;9.03;;;;;;;;;;5042165;28;20472;-83
2022/10/28 00:54:21;;;;;;;19.93;10.90;;;;;;;;;;5043651;28;20439;-82
2022/10/28 00:56:49;;;;;;;18.75;8.93;;;;;;;;;;5042469;28;20437;-83
2022/10/28 00:59:17;;;;;;;14.60;9.50;;;;;;;;;;5039596;28;20447;-82
2022/10/28 01:01:44;;;;;;;13.33;9.63;;;;;;;;;;5041676;28;20448;-83
2022/10/28 01:04:12;;;;;;;13.55;9.10;;;;;;;;;;5042222;28;20705;-82
2022/10/28 01:06:39;;;;;;;13.38;9.10;;;;;;;;;;5042627;28;20436;-82
2022/10/28 01:09:05;;;;;;;19.60;9.50;;;;;;;;;;5038645;28;20438;-83
2022/10/28 01:11:50;;;;;;;16.27;9.23;;;;;;;;;;5041794;28;20520;-83
2022/10/28 01:14:31;;;;;;;13.77;10.52;;;;;;;;;;5038726;28;20505;-83
2022/10/28 01:17:09;;;;;;;17.63;9.25;;;;;;;;;;5037787;28;20425;-82
2022/10/28 01:19:53;;;;;;;15.93;9.55;;;;;;;;;;5040394;28;20584;-81
2022/10/28 01:22:24;;;;;;;12.50;8.70;;;;;;;;;;5035982;28;20421;-82
2022/10/28 01:24:59;;;;;;;13.23;8.45;;;;;;;;;;5041092;28;20475;-82
2022/10/28 01:27:42;;;;;;;13.60;9.45;;;;;;;;;;5041855;28;20419;-82
2022/10/28 01:30:11;;;;;;;14.15;9.18;;;;;;;;;;5043321;28;20949;-82
2022/10/28 01:32:45;;;;;;;13.05;9.15;;;;;;;;;;5037394;28;20427;-83
2022/10/28 01:35:14;;;;;;;16.13;9.35;;;;;;;;;;5042583;28;20409;-82
2022/10/28 01:37:46;;;;;;;12.60;8.33;;;;;;;;;;5039637;28;20963;-83
2022/10/28 01:40:18;;;;;;;14.85;8.45;;;;;;;;;;5041361;28;20435;-82
2022/10/28 01:42:48;;;;;;;15.30;8.60;;;;;;;;;;5041732;28;20508;-82
2022/10/28 01:45:18;;;;;;;12.63;8.10;;;;;;;;;;5043970;28;20804;-82
2022/10/28 01:47:49;;;;;;;13.93;8.57;;;;;;;;;;5042025;28;20417;-82
2022/10/28 01:50:18;;;;;;;13.68;8.18;;;;;;;;;;5040310;28;20413;-83
2022/10/28 01:52:46;;;;;;;10.97;8.63;;;;;;;;;;5041212;28;20433;-83
2022/10/28 01:55:15;;;;;;;12.40;8.07;;;;;;;;;;5042327;28;20927;-82
2022/10/28 01:57:43;;;;;;;14.23;8.50;;;;;;;;;;5038637;28;20439;-82
2022/10/28 02:00:10;;;;;;;12.63;8.05;;;;;;;;;;5039469;28;20439;-83
2022/10/28 02:02:38;;;;;;;12.97;8.97;;;;;;;;;;5036127;28;20422;-82
2022/10/28 02:05:27;;;;;;;10.25;7.45;;;;;;;;;;5040612;28;20429;-82
2022/10/28 02:07:58;;;;;;;11.80;8.70;;;;;;;;;;5038473;28;20491;-83
2022/10/28 02:10:31;;;;;;;15.07;9.07;;;;;;;;;;5043759;28;20423;-83
2022/10/28 02:12:59;;;;;;;12.07;8.73;;;;;;;;;;5040007;28;20511;-82
2022/10/28 02:15:31;;;;;;;16.10;9.77;;;;;;;;;;5041421;28;20441;-82
2022/10/28 02:18:05;;;;;;;15.63;9.23;;;;;;;;;;5039317;28;20429;-81
2022/10/28 02:20:36;;;;;;;15.93;9.05;;;;;;;;;;5042208;28;21028;-83
2022/10/28 02:23:07;;;;;;;16.55;8.60;;;;;;;;;;5042260;28;20425;-83
2022/10/28 02:25:37;;;;;;;15.00;8.02;;;;;;;;;;5040811;28;20401;-82
2022/10/28 02:28:07;;;;;;;14.88;8.10;;;;;;;;;;5040596;28;20867;-81
2022/10/28 02:30:37;;;;;;;13.70;8.10;;;;;;;;;;5042711;28;20425;-83
2022/10/28 02:33:05;;;;;;;16.63;8.05;;;;;;;;;;5040520;28;20416;-82
2022/10/28 02:35:32;;;;;;;12.63;8.32;;;;;;;;;;5044256;28;20426;-80
2022/10/28 02:38:02;;;;;;;15.30;8.47;;;;;;;;;;5044946;28;20415;-82
2022/10/28 02:40:30;;;;;;;13.27;9.40;;;;;;;;;;5043062;28;20416;-81
2022/10/28 02:42:58;;;;;;;16.15;8.77;;;;;;;;;;5043106;28;20902;-82
2022/10/28 02:45:27;;;;;;;16.05;8.57;;;;;;;;;;5048227;28;20419;-81
2022/10/28 02:47:55;;;;;;;16.98;8.70;;;;;;;;;;5046540;28;20881;-81
2022/10/28 02:50:24;;;;;;;19.30;9.73;;;;;;;;;;5040070;28;20444;-82
2022/10/28 02:52:54;;;;;;;14.80;8.85;;;;;;;;;;5045543;28;20423;-81
2022/10/28 02:55:23;;;;;;;14.83;9.90;;;;;;;;;;5047071;28;20423;-82
2022/10/28 02:57:49;;;;;;;18.70;9.93;;;;;;;;;;5041666;28;20919;-83
2022/10/28 03:00:17;;;;;;;16.80;9.88;;;;;;;;;;5045144;28;20696;-83
2022/10/28 03:02:43;;;;;;;17.25;10.57;;;;;;;;;;5043957;28;20496;-84
2022/10/28 03:05:10;;;;;;;18.80;11.10;;;;;;;;;;5044234;28;20518;-81
2022/10/28 03:07:36;;;;;;;14.85;10.40;;;;;;;;;;5041158;28;20440;-84
2022/10/28 03:10:03;;;;;;;16.67;10.47;;;;;;;;;;5045955;28;20444;-82
2022/10/28 03:12:31;;;;;;;17.20;10.38;;;;;;;;;;5040248;28;20437;-82
2022/10/28 03:14:58;;;;;;;16.67;10.10;;;;;;;;;;5042534;28;20928;-82
2022/10/28 03:17:24;;;;;;;16.67;9.20;;;;;;;;;;5044063;28;20770;-81
2022/10/28 03:19:50;;;;;;;14.35;9.70;;;;;;;;;;5042951;28;20937;-83
2022/10/28 03:22:17;;;;;;;19.88;10.15;;;;;;;;;;5043688;28;20425;-81
2022/10/28 03:24:43;;;;;;;15.82;9.80;;;;;;;;;;5044110;28;20432;-81
2022/10/28 03:27:10;;;;;;;14.48;9.90;;;;;;;;;;5044310;28;20414;-82
2022/10/28 03:29:38;;;;;;;18.35;10.40;;;;;;;;;;5041670;28;20451;-82
2022/10/28 03:32:04;;;;;;;18.90;10.50;;;;;;;;;;5044120;28;20410;-81
2022/10/28 03:34:31;;;;;;;19.92;10.60;;;;;;;;;;5044873;28;20443;-81
2022/10/28 03:36:57;;;;;;;18.67;10.03;;;;;;;;;;5046297;28;20508;-82
2022/10/28 03:39:24;;;;;;;21.55;10.60;;;;;;;;;;5043859;28;20429;-82
2022/10/28 03:41:50;;;;;;;18.73;9.70;;;;;;;;;;5042753;28;20427;-82
2022/10/28 03:44:17;;;;;;;14.20;9.40;;;;;;;;;;5045554;28;20430;-83
2022/10/28 03:46:45;;;;;;;19.07;9.87;;;;;;;;;;5045553;28;20429;-84
2022/10/28 03:49:11;;;;;;;18.10;10.73;;;;;;;;;;5040535;28;20433;-83
2022/10/28 03:51:37;;;;;;;20.13;9.98;;;;;;;;;;5043880;28;20437;-81
2022/10/28 03:54:04;;;;;;;16.00;9.97;;;;;;;;;;5042397;28;21074;-81
2022/10/28 03:56:31;;;;;;;17.25;11.07;;;;;;;;;;5041100;28;20946;-82
2022/10/28 03:58:57;;;;;;;18.70;10.18;;;;;;;;;;5043528;28;20420;-83
2022/10/28 04:01:24;;;;;;;17.05;9.52;;;;;;;;;;5045803;28;20433;-82
2022/10/28 04:03:52;;;;;;;19.60;9.20;;;;;;;;;;5046119;28;20922;-83
2022/10/28 04:06:18;;;;;;;16.02;9.00;;;;;;;;;;5042306;28;20433;-83
2022/10/28 04:08:44;;;;;;;16.23;9.60;;;;;;;;;;5044317;28;20435;-83
2022/10/28 04:11:11;;;;;;;18.98;10.90;;;;;;;;;;5045423;28;20921;-83
2022/10/28 04:13:37;;;;;;;16.40;9.55;;;;;;;;;;5043038;28;20436;-83
2022/10/28 04:16:04;;;;;;;12.10;8.57;;;;;;;;;;5044271;28;20432;-84
2022/10/28 04:18:31;;;;;;;16.45;10.10;;;;;;;;;;5045794;28;20423;-84
2022/10/28 04:20:58;;;;;;;17.15;8.98;;;;;;;;;;5045837;28;20421;-83
2022/10/28 04:23:25;;;;;;;17.15;9.32;;;;;;;;;;5043104;28;20426;-83
2022/10/28 04:25:52;;;;;;;15.83;9.27;;;;;;;;;;5044493;28;20431;-82
2022/10/28 04:28:18;;;;;;;14.30;9.40;;;;;;;;;;5045363;28;20426;-83
2022/10/28 04:30:46;;;;;;;15.00;9.45;;;;;;;;;;5041403;28;20443;-82
2022/10/28 04:33:13;;;;;;;15.65;9.82;;;;;;;;;;5043693;28;20430;-83
2022/10/28 04:35:41;;;;;;;16.67;9.80;;;;;;;;;;5042844;28;20516;-84
2022/10/28 04:38:09;;;;;;;15.35;8.95;;;;;;;;;;5042268;28;20524;-83
2022/10/28 04:40:35;;;;;;;19.50;10.13;;;;;;;;;;5043831;28;20444;-83
2022/10/28 04:43:02;;;;;;;16.85;9.85;;;;;;;;;;5042551;28;20459;-83
2022/10/28 04:45:28;;;;;;;14.35;9.23;;;;;;;;;;5044749;28;20421;-83
2022/10/28 04:47:56;;;;;;;16.48;9.73;;;;;;;;;;5041842;28;20936;-83
2022/10/28 04:50:23;;;;;;;17.15;10.75;;;;;;;;;;5042556;28;20443;-83
2022/10/28 04:52:49;;;;;;;15.23;9.52;;;;;;;;;;5042243;28;20415;-84
2022/10/28 04:55:17;;;;;;;13.25;9.35;;;;;;;;;;5042596;28;20433;-83
2022/10/28 04:57:43;;;;;;;20.55;9.50;;;;;;;;;;5039448;28;20442;-84
2022/10/28 05:00:10;;;;;;;12.93;8.90;;;;;;;;;;5041300;28;20928;-83
2022/10/28 05:02:37;;;;;;;15.25;10.35;;;;;;;;;;5041848;28;20422;-83
2022/10/28 05:05:04;;;;;;;13.93;10.00;;;;;;;;;;5044066;28;20429;-83
2022/10/28 05:07:30;;;;;;;14.30;9.30;;;;;;;;;;5040831;28;21023;-83
2022/10/28 05:09:57;;;;;;;16.80;10.35;;;;;;;;;;5044991;28;20433;-83
2022/10/28 05:12:25;;;;;;;16.90;10.90;;;;;;;;;;5044641;28;20408;-82
2022/10/28 05:14:51;;;;;;;18.10;10.80;;;;;;;;;;5040430;28;20424;-83
2022/10/28 05:17:18;;;;;;;19.65;10.95;;;;;;;;;;5040209;28;20430;-83
2022/10/28 05:19:44;;;;;;;15.88;10.10;;;;;;;;;;5040940;28;20436;-85
2022/10/28 05:22:11;;;;;;;19.45;11.05;;;;;;;;;;5043423;28;20437;-83
2022/10/28 05:24:37;;;;;;;19.45;10.82;;;;;;;;;;5040190;28;20421;-83
2022/10/28 05:27:04;;;;;;;20.25;11.10;;;;;;;;;;5041861;28;20417;-82
2022/10/28 05:29:32;;;;;;;15.23;10.25;;;;;;;;;;5043226;28;20431;-84
2022/10/28 05:31:58;;;;;;;20.60;11.00;;;;;;;;;;5042858;28;20419;-83
2022/10/28 05:34:25;;;;;;;16.55;10.93;;;;;;;;;;5042582;28;20436;-83
2022/10/28 05:36:51;;;;;;;18.10;10.75;;;;;;;;;;5040559;28;20432;-83
2022/10/28 05:39:18;;;;;;;16.90;10.27;;;;;;;;;;5042083;28;20429;-83
2022/10/28 05:41:44;;;;;;;17.20;10.20;;;;;;;;;;5039288;28;20423;-84
2022/10/28 05:44:10;;;;;;;18.05;11.30;;;;;;;;;;5042173;28;20433;-82
2022/10/28 05:46:39;;;;;;;17.83;11.45;;;;;;;;;;5040568;28;20429;-84
2022/10/28 05:49:05;;;;;;;21.90;12.48;;;;;;;;;;5041267;28;20429;-83
2022/10/28 05:51:31;;;;;;;18.17;11.40;;;;;;;;;;5043895;28;20802;-83
2022/10/28 05:53:58;;;;;;;19.95;13.00;;;;;;;;;;5039999;28;20960;-82
2022/10/28 05:56:24;;;;;;;18.60;11.75;;;;;;;;;;5043635;28;20423;-83
2022/10/28 05:58:51;;;;;;;19.65;12.82;;;;;;;;;;5037110;28;20425;-83
2022/10/28 06:01:17;;;;;;;23.95;13.27;;;;;;;;;;5040954;28;20431;-83
2022/10/28 06:03:45;;;;;;;16.45;12.05;;;;;;;;;;5040640;28;20426;-81
2022/10/28 06:06:12;;;;;;;19.17;12.07;;;;;;;;;;5040477;28;20423;-82
2022/10/28 06:08:38;;;;;;;19.30;11.40;;;;;;;;;;5039433;28;20425;-83
2022/10/28 06:11:05;;;;;;;15.88;11.40;;;;;;;;;;5040501;28;20438;-82
2022/10/28 06:13:31;;;;;;;19.35;12.10;;;;;;;;;;5038205;28;20435;-83
2022/10/28 06:15:58;;;;;;;19.90;11.90;;;;;;;;;;5038739;28;20440;-83
2022/10/28 06:18:24;;;;;;;18.95;11.55;;;;;;;;;;5040217;28;20428;-82
2022/10/28 06:20:53;;;;;;;19.15;11.88;;;;;;;;;;5042823;28;20429;-82
2022/10/28 06:23:19;;;;;;;15.23;11.55;;;;;;;;;;5039774;28;20431;-82
2022/10/28 06:25:46;;;;;;;19.85;11.65;;;;;;;;;;5038230;28;20926;-82
2022/10/28 06:28:12;;;;;;;18.15;11.95;;;;;;;;;;5040502;28;20421;-83
2022/10/28 06:30:39;;;;;;;16.88;12.57;;;;;;;;;;5038494;28;20524;-83
2022/10/28 06:33:05;;;;;;;18.80;12.57;;;;;;;;;;5041327;28;20927;-83
2022/10/28 06:35:31;;;;;;;20.15;12.70;;;;;;;;;;5039550;28;20495;-83
2022/10/28 06:37:59;;;;;;;18.50;11.27;;;;;;;;;;5038953;28;20422;-80
2022/10/28 06:40:26;;;;;;;20.30;11.30;;;;;;;;;;5039327;28;20432;-82
2022/10/28 06:42:56;;;;;;;23.40;12.70;;;;;;;;;;5042102;28;20840;-80
2022/10/28 06:45:23;;;;;;;21.85;11.70;;;;;;;;;;5033695;28;20803;-80
2022/10/28 06:47:49;;;;;;;17.20;12.10;;;;;;;;;;5039710;28;20430;-80
2022/10/28 06:50:16;;;;;;;17.50;11.35;;;;;;;;;;5039173;28;20936;-80
2022/10/28 06:52:42;;;;;;;22.07;12.20;;;;;;;;;;5038744;28;20433;-80
2022/10/28 06:55:10;;;;;;;20.27;11.85;;;;;;;;;;5039262;28;20928;-80
2022/10/28 06:57:36;;;;;;;18.90;11.32;;;;;;;;;;5037599;28;20426;-79
2022/10/28 07:00:03;;;;;;;16.52;11.30;;;;;;;;;;5038689;28;20429;-79
2022/10/28 07:02:29;;;;;;;16.75;11.57;;;;;;;;;;5039962;28;20441;-80
2022/10/28 07:04:56;;;;;;;20.52;12.13;;;;;;;;;;5040759;28;20939;-80
2022/10/28 07:07:22;;;;;;;15.75;11.48;;;;;;;;;;5037016;28;20438;-81
2022/10/28 07:09:49;;;;;;;20.03;11.47;;;;;;;;;;5038136;28;20429;-81
2022/10/28 07:12:16;;;;;;;20.42;11.55;;;;;;;;;;5041365;28;20444;-79
2022/10/28 07:14:43;;;;;;;18.63;11.35;;;;;;;;;;5039848;28;20425;-82
2022/10/28 07:17:09;;;;;;;19.58;11.82;;;;;;;;;;5041997;28;20425;-80
2022/10/28 07:19:36;;;;;;;18.58;10.95;;;;;;;;;;5039796;28;20409;-80
2022/10/28 07:22:02;;;;;;;17.47;10.93;;;;;;;;;;5044332;28;20936;-80
2022/10/28 07:24:29;;;;;;;17.55;10.90;;;;;;;;;;5046200;28;20412;-80
2022/10/28 07:26:55;;;;;;;15.63;10.63;;;;;;;;;;5043901;28;20918;-81
2022/10/28 07:29:23;;;;;;;19.85;10.45;;;;;;;;;;5044150;28;20437;-80
2022/10/28 07:31:49;;;;;;;19.85;10.98;;;;;;;;;;5043700;28;20441;-81
2022/10/28 07:34:16;;;;;;;15.63;10.30;;;;;;;;;;5042189;28;20450;-81
2022/10/28 07:36:42;;;;;;;18.50;10.50;;;;;;;;;;5043056;28;20432;-79
2022/10/28 07:39:09;;;;;;;18.10;9.80;;;;;;;;;;5045985;28;20433;-84
2022/10/28 07:41:37;;;;;;;18.10;11.02;;;;;;;;;;5039933;28;20452;-79
2022/10/28 07:44:03;;;;;;;16.08;10.38;;;;;;;;;;5041958;28;20429;-80
2022/10/28 07:46:31;;;;;;;22.80;10.55;;;;;;;;;;5043419;28;20429;-80
2022/10/28 07:48:57;;;;;;;16.55;10.07;;;;;;;;;;5043703;28;20928;-80
2022/10/28 07:51:24;;;;;;;19.33;9.95;;;;;;;;;;5041659;28;20527;-80
2022/10/28 07:53:50;;;;;;;16.75;9.88;;;;;;;;;;5042737;28;21021;-79
2022/10/28 07:56:16;;;;;;;15.13;9.70;;;;;;;;;;5043828;28;20429;-79
2022/10/28 07:58:43;;;;;;;15.77;9.80;;;;;;;;;;5047007;28;20863;-80
2022/10/28 08:01:11;;;;;;;17.25;9.85;;;;;;;;;;5047820;28;20429;-80
2022/10/28 08:03:38;;;;;;;14.80;10.25;;;;;;;;;;5046675;28;20433;-79
2022/10/28 08:06:06;;;;;;;15.60;9.55;;;;;;;;;;5047490;28;20504;-80
2022/10/28 08:08:33;;;;;;;16.48;10.13;;;;;;;;;;5046495;28;20500;-80
2022/10/28 08:10:59;;;;;;;15.75;9.30;;;;;;;;;;5044850;28;20424;-80
2022/10/28 08:13:26;;;;;;;14.00;9.32;;;;;;;;;;5045780;28;20431;-81
2022/10/28 08:15:53;;;;;;;15.10;9.47;;;;;;;;;;5046639;28;20425;-81
2022/10/28 08:18:19;;;;;;;11.25;9.10;;;;;;;;;;5045602;28;20435;-79
2022/10/28 08:20:47;;;;;;;15.98;9.60;;;;;;;;;;5046833;28;20428;-79
2022/10/28 08:23:14;;;;;;;19.83;10.10;;;;;;;;;;5047015;28;20935;-80
2022/10/28 08:25:47;;;;;;;15.25;8.68;;;;;;;;;;5042167;28;20427;-79
2022/10/28 08:28:13;;;;;;;15.00;9.73;;;;;;;;;;5046961;28;20550;-80
2022/10/28 08:30:39;;;;;;;12.65;8.02;;;;;;;;;;5043859;28;20427;-79
2022/10/28 08:33:06;;;;;;;13.90;8.88;;;;;;;;;;5048080;28;20429;-79
2022/10/28 08:35:34;;;;;;;18.47;9.87;;;;;;;;;;5043963;28;20938;-79
2022/10/28 08:38:02;;;;;;;18.17;8.95;;;;;;;;;;5044197;28;20431;-79
2022/10/28 08:40:32;;;;;;;15.43;8.20;;;;;;;;;;5045668;28;20652;-79
2022/10/28 08:43:01;;;;;;;15.48;8.60;;;;;;;;;;5049038;28;20447;-79
2022/10/28 08:45:35;;;;;;;14.20;8.40;;;;;;;;;;5046890;28;20423;-81
2022/10/28 08:48:08;;;;;;;15.90;8.88;;;;;;;;;;5044655;28;20430;-79
2022/10/28 08:50:41;;;;;;;17.02;8.52;;;;;;;;;;5039022;28;20425;-81
2022/10/28 08:53:12;;;;;;;15.70;9.05;;;;;;;;;;5040376;28;20930;-79
2022/10/28 08:55:40;;;;;;;13.52;8.10;;;;;;;;;;5042195;28;20789;-79
2022/10/28 08:58:08;;;;;;;12.65;8.82;;;;;;;;;;5035663;28;20435;-79
2022/10/28 09:00:35;;;;;;;15.70;8.52;;;;;;;;;;5041285;28;20426;-81
2022/10/28 09:03:06;;;;;;;11.77;7.32;;;;;;;;;;5043952;28;20437;-80
2022/10/28 09:05:33;;;;;;;17.27;8.27;;;;;;;;;;5040188;28;20437;-81
2022/10/28 09:08:01;;;;;;;20.40;8.40;;;;;;;;;;5037088;28;20840;-79
2022/10/28 09:10:37;;;;;;;12.82;8.35;;;;;;;;;;5042358;28;20452;-80
2022/10/28 09:13:06;;;;;;;15.60;8.20;;;;;;;;;;5042625;28;20437;-79
2022/10/28 09:15:34;;;;;;;16.67;7.97;;;;;;;;;;5042987;28;20423;-79
2022/10/28 09:18:06;;;;;;;14.88;8.48;;;;;;;;;;5039582;28;20429;-79
2022/10/28 09:20:39;;;;;;;17.60;8.20;;;;;;;;;;5039808;28;20428;-79
2022/10/28 09:23:09;;;;;;;13.75;7.82;;;;;;;;;;5039298;28;20444;-79
2022/10/28 09:25:42;;;;;;;17.17;8.23;;;;;;;;;;5041866;28;20432;-79
2022/10/28 09:28:21;;;;;;;13.37;7.23;;;;;;;;;;5039994;28;20828;-80
2022/10/28 09:30:50;;;;;;;11.30;6.72;;;;;;;;;;5041165;28;20433;-79
2022/10/28 09:33:21;;;;;;;14.30;7.18;;;;;;;;;;5041752;28;20786;-79
2022/10/28 09:35:47;;;;;;;13.48;7.40;;;;;;;;;;5039226;28;20423;-79
2022/10/28 09:38:16;;;;;;;16.60;7.63;;;;;;;;;;5041944;28;20409;-80
2022/10/28 09:40:48;;;;;;;11.70;6.55;;;;;;;;;;5040484;28;20421;-80
2022/10/28 09:43:17;;;;;;;12.68;7.40;;;;;;;;;;5041508;28;20436;-79
2022/10/28 09:45:46;;;;;;;15.00;6.82;;;;;;;;;;5043325;28;20429;-79
2022/10/28 09:48:16;;;;;;;15.05;6.13;;;;;;;;;;5039283;28;20439;-80
2022/10/28 09:50:43;;;;;;;12.63;6.90;;;;;;;;;;5038739;28;20431;-80
2022/10/28 09:53:12;;;;;;;13.18;7.32;;;;;;;;;;5044242;28;20448;-81
2022/10/28 09:55:39;;;;;;;13.73;6.03;;;;;;;;;;5040496;28;20519;-79
2022/10/28 09:58:06;;;;;;;10.00;6.55;;;;;;;;;;5044837;28;20435;-79
2022/10/28 10:00:33;;;;;;;11.47;5.80;;;;;;;;;;5037316;28;20953;-78
2022/10/28 10:02:59;;;;;;;13.27;6.47;;;;;;;;;;5042834;28;20935;-80
2022/10/28 10:05:26;;;;;;;12.50;5.90;;;;;;;;;;5045001;28;20426;-79
2022/10/28 10:07:55;;;;;;;15.95;6.57;;;;;;;;;;5046083;28;20429;-80
2022/10/28 10:10:23;;;;;;;14.43;6.32;;;;;;;;;;5044058;28;20432;-81
2022/10/28 10:12:50;;;;;;;13.50;5.95;;;;;;;;;;5044600;28;20581;-81
2022/10/28 10:15:23;;;;;;;17.80;6.13;;;;;;;;;;5041941;28;20421;-81
2022/10/28 10:17:49;;;;;;;16.48;6.72;;;;;;;;;;5045428;28;20429;-82
2022/10/28 10:20:16;;;;;;;18.02;6.57;;;;;;;;;;5041192;28;20427;-81
2022/10/28 10:22:43;;;;;;;11.00;5.82;;;;;;;;;;5046321;28;20514;-81
2022/10/28 10:25:24;;;;;;;15.70;7.03;;;;;;;;;;5043637;28;20431;-81
2022/10/28 10:27:51;;;;;;;13.63;5.60;;;;;;;;;;5044608;28;20441;-82
2022/10/28 10:30:21;;;;;;;17.60;6.40;;;;;;;;;;5044914;28;20421;-79
2022/10/28 10:32:48;;;;;;;18.45;6.10;;;;;;;;;;5042438;28;20442;-82
2022/10/28 10:35:19;;;;;;;14.32;7.00;;;;;;;;;;5042612;28;20421;-81
2022/10/28 10:37:47;;;;;;;13.82;6.32;;;;;;;;;;5044094;28;20452;-81
2022/10/28 10:40:18;;;;;;;16.73;6.03;;;;;;;;;;5045640;28;20438;-80
2022/10/28 10:42:45;;;;;;;15.07;6.00;;;;;;;;;;5044564;28;20448;-82
2022/10/28 10:45:18;;;;;;;14.70;6.50;;;;;;;;;;5044003;28;20484;-80
2022/10/28 10:47:47;;;;;;;17.02;6.18;;;;;;;;;;5043517;28;20438;-82
2022/10/28 10:50:23;;;;;;;11.80;5.97;;;;;;;;;;5044393;28;20430;-82
2022/10/28 10:52:51;;;;;;;16.50;6.00;;;;;;;;;;5047728;28;20559;-80
2022/10/28 10:55:21;;;;;;;16.45;6.80;;;;;;;;;;5042491;28;20425;-80
2022/10/28 10:57:48;;;;;;;13.32;6.63;;;;;;;;;;5048010;28;20439;-79
2022/10/28 11:00:16;;;;;;;12.63;5.80;;;;;;;;;;5048221;28;20427;-81
2022/10/28 11:02:45;;;;;;;12.38;6.75;;;;;;;;;;5047584;28;20956;-82
2022/10/28 11:05:19;;;;;;;13.52;6.50;;;;;;;;;;5033565;28;20478;-82
2022/10/28 11:07:47;;;;;;;11.85;6.20;;;;;;;;;;5024702;28;20537;-83
2022/10/28 11:10:23;;;;;;;11.80;6.23;;;;;;;;;;5033028;28;20421;-79
2022/10/28 11:12:51;;;;;;;17.08;6.15;;;;;;;;;;5044276;28;20435;-81
2022/10/28 11:15:21;;;;;;;13.50;6.55;;;;;;;;;;5042278;28;20425;-80
2022/10/28 11:17:54;;;;;;;11.70;7.18;;;;;;;;;;5043166;28;20464;-80
2022/10/28 11:20:24;;;;;;;14.10;6.30;;;;;;;;;;5043988;28;20421;-81
2022/10/28 11:22:56;;;;;;;16.50;6.82;;;;;;;;;;5045207;28;22769;-79
2022/10/28 11:25:28;;;;;;;12.20;5.80;;;;;;;;;;5045960;28;20794;-79
2022/10/28 11:28:00;;;;;;;13.83;6.63;;;;;;;;;;5042406;28;20435;-79
2022/10/28 11:30:32;;;;;;;22.38;7.07;;;;;;;;;;5041919;28;20517;-80
2022/10/28 11:33:06;;;;;;;12.97;5.73;;;;;;;;;;5042011;28;20439;-79
2022/10/28 11:35:38;;;;;;;13.10;5.90;;;;;;;;;;5044293;28;20551;-80
2022/10/28 11:38:09;;;;;;;17.27;6.88;;;;;;;;;;5043439;28;20495;-80
2022/10/28 11:40:39;;;;;;;16.15;5.88;;;;;;;;;;5040239;28;20915;-79
2022/10/28 11:43:12;;;;;;;11.98;5.90;;;;;;;;;;5045920;28;20437;-80
2022/10/28 11:45:39;;;;;;;18.50;6.88;;;;;;;;;;5040378;28;20431;-81
2022/10/28 11:48:13;;;;;;;17.83;6.65;;;;;;;;;;5043859;28;20431;-81
2022/10/28 11:50:54;;;;;;;13.13;7.13;;;;;;;;;;5042849;28;20432;-79
2022/10/28 11:53:27;;;;;;;14.80;6.50;;;;;;;;;;5041854;28;20430;-81
2022/10/28 11:55:56;;;;;;;14.68;6.30;;;;;;;;;;5039526;28;21170;-81
2022/10/28 11:58:28;;;;;;;14.93;6.93;;;;;;;;;;5043338;28;20433;-80
2022/10/28 12:01:00;;;;;;;15.80;6.90;;;;;;;;;;5040340;28;20431;-79
2022/10/28 12:03:42;;;;;;;13.63;6.10;;;;;;;;;;5042559;28;20427;-81
2022/10/28 12:06:16;;;;;;;16.58;6.20;;;;;;;;;;5042040;28;20465;-81
2022/10/28 12:08:51;;;;;;;10.52;5.97;;;;;;;;;;5042843;28;20430;-80
2022/10/28 12:11:25;;;;;;;14.27;7.10;;;;;;;;;;5044781;28;20427;-79
2022/10/28 12:13:57;;;;;;;15.67;6.63;;;;;;;;;;5043917;28;20429;-79
2022/10/28 12:16:27;;;;;;;15.00;6.00;;;;;;;;;;5042482;28;20487;-79
2022/10/28 12:18:55;;;;;;;16.27;6.60;;;;;;;;;;5041032;28;20426;-79
2022/10/28 12:21:27;;;;;;;12.53;7.20;;;;;;;;;;5040235;28;20443;-81
2022/10/28 12:23:55;;;;;;;12.73;6.40;;;;;;;;;;5042291;28;20430;-80
2022/10/28 12:26:33;;;;;;;15.60;6.75;;;;;;;;;;5041587;28;20436;-81
2022/10/28 12:29:01;;;;;;;14.40;6.70;;;;;;;;;;5039816;28;20443;-81
2022/10/28 12:31:31;;;;;;;20.93;6.90;;;;;;;;;;5042571;28;20429;-79
2022/10/28 12:33:58;;;;;;;15.87;6.60;;;;;;;;;;5041071;28;20445;-81
2022/10/28 12:36:31;;;;;;;13.55;6.28;;;;;;;;;;5038417;28;20432;-79
2022/10/28 12:39:00;;;;;;;16.00;6.40;;;;;;;;;;5042422;28;20516;-79
2022/10/28 12:41:28;;;;;;;19.48;6.88;;;;;;;;;;5043214;28;20471;-79
2022/10/28 12:43:57;;;;;;;11.27;5.90;;;;;;;;;;5042471;28;20992;-79
2022/10/28 12:46:28;;;;;;;12.88;5.90;;;;;;;;;;5024770;28;20989;-79
2022/10/28 12:48:57;;;;;;;12.70;6.32;;;;;;;;;;5024183;28;20952;-80
2022/10/28 12:51:27;;;;;;;14.73;5.90;;;;;;;;;;5036865;28;20422;-80
2022/10/28 12:53:57;;;;;;;14.32;6.00;;;;;;;;;;5043454;28;20432;-80
2022/10/28 12:56:25;;;;;;;18.67;7.18;;;;;;;;;;5043303;28;20425;-79
2022/10/28 12:58:54;;;;;;;16.15;6.53;;;;;;;;;;5039999;28;20943;-80
2022/10/28 13:01:23;;;;;;;16.60;6.40;;;;;;;;;;5040772;28;20434;-80
2022/10/28 13:03:50;;;;;;;13.70;6.28;;;;;;;;;;5040771;28;20434;-80
2022/10/28 13:06:24;;;;;;;16.20;6.75;;;;;;;;;;5040544;28;20417;-80
2022/10/28 13:09:11;;;;;;;18.02;6.50;;;;;;;;;;5039420;28;20925;-81
2022/10/28 13:11:49;;;;;;;18.17;6.70;;;;;;;;;;5042987;28;20427;-80
2022/10/28 13:14:23;;;;;;;20.23;7.38;;;;;;;;;;5040961;28;20461;-80
2022/10/28 13:17:04;;;;;;;17.38;6.47;;;;;;;;;;5041266;28;20457;-80
2022/10/28 13:19:37;;;;;;;17.15;6.22;;;;;;;;;;5039956;28;20469;-80
2022/10/28 13:22:21;;;;;;;14.73;6.50;;;;;;;;;;5040043;28;20433;-80
2022/10/28 13:24:54;;;;;;;15.32;6.88;;;;;;;;;;5039328;28;20418;-81
2022/10/28 13:27:21;;;;;;;18.23;6.95;;;;;;;;;;5041970;28;20447;-81
2022/10/28 13:29:49;;;;;;;16.63;6.53;;;;;;;;;;5042559;28;20930;-80
2022/10/28 13:32:32;;;;;;;14.63;7.10;;;;;;;;;;5042371;28;20435;-80
2022/10/28 13:34:59;;;;;;;16.23;7.05;;;;;;;;;;5031951;28;20437;-78
2022/10/28 13:37:29;;;;;;;14.82;7.28;;;;;;;;;;5022189;28;20443;-80
2022/10/28 13:39:57;;;;;;;18.05;6.90;;;;;;;;;;5030559;28;20427;-81
2022/10/28 13:42:31;;;;;;;17.05;7.03;;;;;;;;;;5040186;28;20437;-81
2022/10/28 13:44:59;;;;;;;15.20;6.70;;;;;;;;;;5031768;28;20439;-79
2022/10/28 13:47:30;;;;;;;13.88;6.95;;;;;;;;;;5020878;28;20432;-79
2022/10/28 13:50:21;;;;;;;19.27;7.13;;;;;;;;;;5027694;28;20433;-79
2022/10/28 13:53:07;;;;;;;17.00;8.20;;;;;;;;;;5026113;28;20423;-79
2022/10/28 13:55:43;;;;;;;16.77;7.90;;;;;;;;;;5040968;28;20427;-81
2022/10/28 13:58:20;;;;;;;17.67;8.57;;;;;;;;;;5041369;28;20430;-80
2022/10/28 14:00:46;;;;;;;19.30;8.40;;;;;;;;;;5039988;28;20426;-79
2022/10/28 14:03:17;;;;;;;15.15;7.55;;;;;;;;;;5044483;28;20425;-81
2022/10/28 14:05:51;;;;;;;19.75;7.82;;;;;;;;;;5048806;28;20830;-80
2022/10/28 14:08:19;;;;;;;16.92;7.60;;;;;;;;;;5046014;28;20413;-80
2022/10/28 14:10:57;;;;;;;17.08;7.55;;;;;;;;;;5045920;28;20424;-80
2022/10/28 14:13:23;;;;;;;16.45;6.80;;;;;;;;;;5044646;28;20486;-80
2022/10/28 14:15:51;;;;;;;18.67;7.32;;;;;;;;;;5045913;28;20415;-80
2022/10/28 14:18:22;;;;;;;17.48;7.60;;;;;;;;;;5045516;28;20439;-80
2022/10/28 14:20:57;;;;;;;15.80;8.13;;;;;;;;;;5046567;28;20414;-80
2022/10/28 14:23:42;;;;;;;15.93;7.15;;;;;;;;;;5047924;28;20467;-80
2022/10/28 14:26:10;;;;;;;16.45;7.63;;;;;;;;;;5039279;28;20946;-80
2022/10/28 14:28:50;;;;;;;16.07;7.00;;;;;;;;;;5045803;28;21068;-80
2022/10/28 14:31:19;;;;;;;12.15;7.03;;;;;;;;;;5048661;28;20432;-80
2022/10/28 14:33:51;;;;;;;19.45;8.38;;;;;;;;;;5051221;28;20501;-80
2022/10/28 14:36:25;;;;;;;16.50;7.30;;;;;;;;;;5048010;28;20428;-82